createdAt,value
2019-06-07T00:01:26.852Z,14.55
2019-06-07T00:03:56.139Z,13.72
2019-06-07T00:06:26.041Z,13.58
2019-06-07T00:08:55.447Z,9.63
2019-06-07T00:11:24.671Z,13.58
2019-06-07T00:13:53.786Z,8.63
2019-06-07T00:16:23.499Z,10.40
2019-06-07T00:18:52.986Z,10.82
2019-06-07T00:22:12.225Z,10.68
2019-06-07T00:23:52.925Z,15.93
2019-06-07T00:26:22.110Z,16.30
2019-06-07T00:28:51.320Z,14.78
2019-06-07T00:31:24.166Z,13.78
2019-06-07T00:33:51.446Z,11.05
2019-06-07T00:36:23.130Z,12.95
2019-06-07T00:38:51.378Z,11.40
2019-06-07T00:41:22.240Z,15.13
2019-06-07T00:43:51.409Z,11.48
2019-06-07T00:46:21.625Z,13.10
2019-06-07T00:48:51.463Z,13.32
2019-06-07T00:51:21.903Z,10.08
2019-06-07T00:53:51.551Z,17.48
2019-06-07T00:56:22.206Z,18.92
2019-06-07T00:59:10.157Z,11.68
2019-06-07T01:01:25.300Z,15.63
2019-06-07T01:03:53.301Z,11.95
2019-06-07T01:06:24.461Z,15.13
2019-06-07T01:08:53.370Z,14.50
2019-06-07T01:11:25.436Z,14.23
2019-06-07T01:13:53.383Z,12.75
2019-06-07T01:16:24.339Z,13.18
2019-06-07T01:18:53.494Z,12.82
2019-06-07T01:21:24.840Z,9.68
2019-06-07T01:24:10.871Z,11.88
2019-06-07T01:26:26.957Z,13.95
2019-06-07T01:28:55.211Z,9.80
2019-06-07T01:31:27.602Z,15.55
2019-06-07T01:33:55.272Z,15.00
2019-06-07T01:36:28.871Z,11.28
2019-06-07T01:38:55.287Z,15.18
2019-06-07T01:41:25.894Z,12.35
2019-06-07T01:43:55.298Z,16.02
2019-06-07T01:46:26.681Z,14.43
2019-06-07T01:48:55.305Z,14.40
2019-06-07T01:51:27.004Z,12.98
2019-06-07T01:54:41.227Z,12.93
2019-06-07T01:56:29.202Z,19.45
2019-06-07T01:58:56.994Z,16.77
2019-06-07T02:01:29.721Z,13.20
2019-06-07T02:03:56.947Z,13.53
2019-06-07T02:06:31.080Z,13.08
2019-06-07T02:08:56.910Z,13.93
2019-06-07T02:11:26.634Z,16.00
2019-06-07T02:13:56.008Z,20.77
2019-06-07T02:16:25.386Z,13.38
2019-06-07T02:19:01.551Z,12.43
2019-06-07T02:21:28.064Z,20.35
2019-06-07T02:23:55.674Z,15.98
2019-06-07T02:26:25.523Z,14.87
2019-06-07T02:28:54.715Z,15.75
2019-06-07T02:31:25.236Z,12.65
2019-06-07T02:33:53.864Z,14.78
2019-06-07T02:36:25.658Z,9.90
2019-06-07T02:38:52.928Z,13.60
2019-06-07T02:41:24.935Z,12.43
2019-06-07T02:43:52.016Z,15.05
2019-06-07T02:46:34.198Z,13.03
2019-06-07T02:48:55.297Z,11.65
2019-06-07T02:51:32.164Z,14.28
2019-06-07T02:53:56.943Z,11.80
2019-06-07T02:56:39.062Z,14.20
2019-06-07T02:58:55.995Z,13.93
2019-06-07T03:01:25.550Z,12.05
2019-06-07T03:03:55.156Z,11.90
2019-06-07T03:06:27.129Z,13.03
2019-06-07T03:08:55.288Z,14.73
2019-06-07T03:11:24.168Z,11.80
2019-06-07T03:13:53.361Z,12.75
2019-06-07T03:16:23.750Z,11.48
2019-06-07T03:19:04.537Z,14.13
2019-06-07T03:21:36.359Z,12.40
2019-06-07T03:24:05.360Z,13.05
2019-06-07T03:26:35.767Z,13.18
2019-06-07T03:29:04.496Z,9.75
2019-06-07T03:31:41.500Z,8.93
2019-06-07T03:34:03.637Z,10.35
2019-06-07T03:36:34.718Z,11.73
2019-06-07T03:39:03.548Z,11.18
2019-06-07T03:41:40.137Z,14.00
2019-06-07T03:44:02.682Z,26.95
2019-06-07T03:46:36.225Z,13.58
2019-06-07T03:49:02.888Z,12.90
2019-06-07T03:51:32.895Z,13.80
2019-06-07T03:54:01.913Z,11.75
2019-06-07T03:56:32.874Z,10.48
2019-06-07T03:59:00.991Z,10.72
2019-06-07T04:01:30.331Z,15.88
2019-06-07T04:04:00.051Z,10.63
2019-06-07T04:06:31.015Z,8.15
2019-06-07T04:08:59.151Z,9.90
2019-06-07T04:11:27.847Z,12.20
2019-06-07T04:13:56.530Z,17.48
2019-06-07T04:16:25.584Z,9.05
2019-06-07T04:18:54.345Z,7.50
2019-06-07T04:21:23.182Z,8.85
2019-06-07T04:23:52.097Z,9.60
2019-06-07T04:26:20.879Z,6.80
2019-06-07T04:31:20.018Z,7.78
2019-06-07T04:33:49.153Z,7.42
2019-06-07T04:36:17.947Z,11.08
2019-06-07T04:38:48.006Z,7.28
2019-06-07T04:41:18.241Z,7.08
2019-06-07T04:43:46.987Z,6.57
2019-06-07T04:46:15.884Z,8.80
2019-06-07T04:48:45.287Z,7.45
2019-06-07T04:51:14.564Z,7.97
2019-06-07T04:53:43.615Z,5.10
2019-06-07T04:56:12.296Z,7.50
2019-06-07T04:58:41.337Z,7.78
2019-06-07T05:01:26.181Z,7.17
2019-06-07T05:03:44.082Z,7.70
2019-06-07T05:06:11.131Z,7.28
2019-06-07T05:08:43.673Z,11.48
2019-06-07T05:11:10.219Z,11.55
2019-06-07T05:13:41.436Z,8.65
2019-06-07T05:16:09.244Z,8.20
2019-06-07T05:18:40.140Z,6.55
2019-06-07T05:21:08.344Z,5.70
2019-06-07T05:26:07.400Z,7.40
2019-06-07T05:28:40.612Z,8.45
2019-06-07T05:31:07.974Z,9.10
2019-06-07T05:33:38.433Z,11.20
2019-06-07T05:36:07.402Z,13.98
2019-06-07T05:38:38.886Z,9.93
2019-06-07T05:41:06.469Z,7.42
2019-06-07T05:43:39.287Z,8.48
2019-06-07T05:46:05.607Z,9.55
2019-06-07T05:48:34.634Z,8.13
2019-06-07T05:51:03.433Z,7.83
2019-06-07T05:53:32.865Z,8.20
2019-06-07T05:56:01.659Z,6.75
2019-06-07T05:58:30.433Z,8.15
2019-06-07T06:01:40.854Z,9.08
2019-06-07T06:03:29.555Z,6.90
2019-06-07T06:05:58.193Z,9.68
2019-06-07T06:08:26.898Z,10.40
2019-06-07T06:10:55.647Z,11.03
2019-06-07T06:13:24.434Z,9.83
2019-06-07T06:16:01.162Z,9.85
2019-06-07T06:18:23.613Z,14.33
2019-06-07T06:21:15.230Z,11.73
2019-06-07T06:23:22.736Z,8.03
2019-06-07T06:25:56.978Z,8.65
2019-06-07T06:28:22.090Z,12.82
2019-06-07T06:30:50.853Z,11.35
2019-06-07T06:33:32.894Z,8.18
2019-06-07T06:35:51.051Z,8.55
2019-06-07T06:38:19.879Z,8.08
2019-06-07T06:40:55.036Z,6.83
2019-06-07T06:43:19.020Z,10.60
2019-06-07T06:45:50.484Z,8.08
2019-06-07T06:48:18.096Z,10.95
2019-06-07T06:50:51.763Z,8.65
2019-06-07T06:53:17.270Z,7.22
2019-06-07T06:55:48.418Z,7.95
2019-06-07T06:58:16.423Z,8.80
2019-06-07T07:00:59.346Z,9.70
2019-06-07T07:05:50.790Z,9.75
2019-06-07T07:08:19.138Z,7.92
2019-06-07T07:10:51.186Z,10.55
2019-06-07T07:13:18.389Z,11.38
2019-06-07T07:15:50.648Z,15.58
2019-06-07T07:18:17.894Z,7.37
2019-06-07T07:20:48.320Z,8.58
2019-06-07T07:23:17.389Z,7.70
2019-06-07T07:25:52.832Z,9.28
2019-06-07T07:28:16.671Z,8.20
2019-06-07T07:30:47.410Z,5.25
2019-06-07T07:33:17.361Z,6.80
2019-06-07T07:36:07.851Z,6.65
2019-06-07T07:38:16.617Z,9.00
2019-06-07T07:41:01.541Z,8.80
2019-06-07T07:43:15.745Z,6.80
2019-06-07T07:45:50.515Z,10.00
2019-06-07T07:48:18.218Z,10.58
2019-06-07T07:50:48.884Z,8.98
2019-06-07T07:53:15.639Z,9.48
2019-06-07T07:55:45.074Z,7.58
2019-06-07T07:58:14.597Z,10.13
2019-06-07T08:00:57.513Z,8.78
2019-06-07T08:03:13.741Z,7.83
2019-06-07T08:05:44.975Z,11.20
2019-06-07T08:08:12.826Z,5.58
2019-06-07T08:10:41.531Z,9.78
2019-06-07T08:13:27.650Z,8.73
2019-06-07T08:15:40.667Z,12.90
2019-06-07T08:18:09.447Z,10.30
2019-06-07T08:20:38.228Z,7.05
2019-06-07T08:23:06.955Z,11.48
2019-06-07T08:25:35.744Z,6.42
2019-06-07T08:28:04.442Z,8.10
2019-06-07T08:30:54.973Z,9.05
2019-06-07T08:33:24.759Z,8.20
2019-06-07T08:40:34.624Z,8.30
2019-06-07T08:43:18.449Z,10.48
2019-06-07T08:45:33.754Z,9.68
2019-06-07T08:48:12.992Z,7.37
2019-06-07T08:50:32.835Z,7.58
2019-06-07T08:53:11.436Z,10.35
2019-06-07T08:55:31.912Z,13.00
2019-06-07T08:58:07.242Z,10.65
2019-06-07T09:00:47.711Z,10.72
2019-06-07T09:03:05.165Z,10.03
2019-06-07T09:05:31.753Z,9.30
2019-06-07T09:08:23.592Z,6.70
2019-06-07T09:10:30.871Z,11.12
2019-06-07T09:13:05.020Z,10.72
2019-06-07T09:15:30.031Z,8.70
2019-06-07T09:20:43.099Z,9.83
2019-06-07T09:23:17.038Z,6.80
2019-06-07T09:25:56.465Z,8.48
2019-06-07T09:28:19.307Z,9.78
2019-06-07T09:30:44.133Z,7.80
2019-06-07T09:33:12.864Z,10.15
2019-06-07T09:35:41.641Z,10.23
2019-06-07T09:38:23.687Z,7.03
2019-06-07T09:40:40.707Z,8.08
2019-06-07T09:45:39.906Z,8.15
2019-06-07T09:48:13.442Z,8.88
2019-06-07T09:50:39.009Z,8.68
2019-06-07T09:53:21.085Z,13.72
2019-06-07T09:55:38.116Z,12.30
2019-06-07T09:58:30.904Z,9.80
2019-06-07T10:00:41.375Z,9.28
2019-06-07T10:03:17.764Z,5.00
2019-06-07T10:05:37.883Z,2.67
2019-06-07T10:08:25.872Z,6.40
2019-06-07T10:10:37.051Z,4.78
2019-06-07T10:13:06.584Z,4.97
2019-06-07T10:15:36.204Z,5.05
2019-06-07T10:18:04.994Z,3.77
2019-06-07T10:20:33.674Z,3.15
2019-06-07T10:23:03.698Z,3.83
2019-06-07T10:25:32.588Z,5.87
2019-06-07T10:28:01.865Z,2.67
2019-06-07T10:30:30.720Z,4.87
2019-06-07T10:33:00.008Z,2.67
2019-06-07T10:35:29.027Z,6.75
2019-06-07T10:37:58.331Z,3.85
2019-06-07T10:40:27.138Z,4.42
2019-06-07T10:42:55.818Z,6.28
2019-06-07T10:45:24.590Z,2.77
2019-06-07T10:47:53.405Z,3.12
2019-06-07T10:50:22.460Z,3.62
2019-06-07T10:52:51.153Z,4.17
2019-06-07T10:55:19.952Z,5.45
2019-06-07T10:57:48.708Z,4.35
2019-06-07T11:00:17.845Z,3.58
2019-06-07T11:02:46.584Z,3.80
2019-06-07T11:05:16.956Z,4.90
2019-06-07T11:07:45.732Z,5.75
2019-06-07T11:10:19.079Z,6.08
2019-06-07T11:12:44.840Z,8.35
2019-06-07T11:15:14.938Z,6.97
2019-06-07T11:17:43.816Z,3.95
2019-06-07T11:20:12.578Z,3.75
2019-06-07T11:23:08.164Z,6.87
2019-06-07T11:25:37.070Z,6.58
2019-06-07T11:28:06.339Z,7.45
2019-06-07T11:30:36.396Z,4.47
2019-06-07T11:33:06.429Z,5.95
2019-06-07T11:35:35.405Z,9.70
2019-06-07T11:38:04.231Z,9.73
2019-06-07T11:40:35.919Z,20.57
2019-06-07T11:43:03.400Z,16.50
2019-06-07T11:45:32.178Z,10.55
2019-06-07T11:48:00.853Z,8.33
2019-06-07T11:50:29.600Z,9.98
2019-06-07T11:52:58.352Z,3.85
2019-06-07T11:55:27.003Z,5.33
2019-06-07T11:57:55.702Z,6.87
2019-06-07T12:00:24.736Z,6.05
2019-06-07T12:02:53.561Z,9.05
2019-06-07T12:05:22.491Z,3.35
2019-06-07T12:07:51.293Z,4.60
2019-06-07T12:10:22.987Z,5.72
2019-06-07T12:12:50.867Z,2.45
2019-06-07T12:15:19.576Z,3.40
2019-06-07T12:17:48.373Z,5.35
2019-06-07T12:20:19.578Z,4.45
2019-06-07T12:22:48.520Z,9.18
2019-06-07T12:25:21.277Z,5.92
2019-06-07T12:27:47.650Z,3.75
2019-06-07T12:30:23.502Z,8.60
2019-06-07T12:32:46.905Z,5.65
2019-06-07T12:35:17.602Z,7.03
2019-06-07T12:37:46.557Z,7.45
2019-06-07T12:40:26.447Z,4.47
2019-06-07T12:42:46.151Z,5.60
2019-06-07T12:45:32.380Z,11.45
2019-06-07T12:47:45.377Z,8.15
2019-06-07T12:50:15.358Z,4.90
2019-06-07T12:52:45.366Z,6.53
2019-06-07T12:55:15.886Z,4.70
2019-06-07T12:57:45.928Z,6.45
2019-06-07T13:00:16.037Z,9.23
2019-06-07T13:02:44.875Z,7.27
2019-06-07T13:05:17.873Z,5.53
2019-06-07T13:07:46.918Z,8.30
2019-06-07T13:10:17.902Z,5.08
2019-06-07T13:15:17.693Z,4.97
2019-06-07T13:17:45.252Z,8.78
2019-06-07T13:20:14.089Z,12.88
2019-06-07T13:22:42.863Z,6.70
2019-06-07T13:25:13.251Z,9.85
2019-06-07T13:27:41.993Z,9.05
2019-06-07T13:30:11.265Z,10.45
2019-06-07T13:32:40.147Z,13.03
2019-06-07T13:35:09.089Z,11.28
2019-06-07T13:37:37.910Z,4.22
2019-06-07T13:40:07.107Z,6.62
2019-06-07T13:42:35.862Z,8.23
2019-06-07T13:45:05.731Z,5.85
2019-06-07T13:47:34.413Z,4.65
2019-06-07T13:50:04.826Z,5.03
2019-06-07T13:52:33.596Z,6.10
2019-06-07T13:55:02.842Z,3.60
2019-06-07T13:57:31.774Z,5.12
2019-06-07T14:00:00.433Z,5.45
2019-06-07T14:02:29.794Z,4.50
2019-06-07T14:04:58.772Z,6.83
2019-06-07T14:07:28.596Z,4.60
2019-06-07T14:09:57.836Z,5.87
2019-06-07T14:12:27.744Z,4.03
2019-06-07T14:14:56.689Z,4.37
2019-06-07T14:17:25.387Z,4.67
2019-06-07T14:19:54.129Z,3.98
2019-06-07T14:22:22.839Z,6.37
2019-06-07T14:24:51.668Z,6.25
2019-06-07T14:27:21.369Z,6.12
2019-06-07T14:29:50.302Z,8.83
2019-06-07T14:32:19.040Z,5.30
2019-06-07T14:34:47.832Z,8.05
2019-06-07T14:37:16.697Z,6.90
2019-06-07T14:39:45.352Z,6.10
2019-06-07T14:42:14.110Z,5.42
2019-06-07T14:44:43.062Z,6.12
2019-06-07T14:47:11.846Z,6.33
2019-06-07T14:49:40.627Z,5.42
2019-06-07T14:52:09.405Z,7.50
2019-06-07T14:54:39.260Z,7.03
2019-06-07T14:57:08.371Z,9.80
2019-06-07T14:59:38.667Z,9.13
2019-06-07T15:02:07.514Z,6.62
2019-06-07T15:04:39.156Z,9.38
2019-06-07T15:07:09.640Z,9.85
2019-06-07T15:09:39.368Z,6.90
2019-06-07T15:12:23.900Z,8.18
2019-06-07T15:14:38.484Z,6.15
2019-06-07T15:17:07.234Z,11.70
2019-06-07T15:19:36.490Z,6.78
2019-06-07T15:22:05.224Z,11.48
2019-06-07T15:24:37.285Z,8.33
2019-06-07T15:27:04.346Z,10.70
2019-06-07T15:29:33.839Z,11.48
2019-06-07T15:32:02.652Z,9.25
2019-06-07T15:34:32.404Z,7.40
2019-06-07T15:37:01.165Z,7.35
2019-06-07T15:39:30.406Z,10.38
2019-06-07T15:41:59.976Z,11.83
2019-06-07T15:44:29.106Z,6.97
2019-06-07T15:46:57.954Z,7.17
2019-06-07T15:49:26.614Z,9.53
2019-06-07T15:51:55.479Z,8.23
2019-06-07T15:54:24.324Z,6.58
2019-06-07T15:56:53.173Z,7.25
2019-06-07T15:59:21.842Z,6.65
2019-06-07T16:01:50.592Z,6.42
2019-06-07T16:04:19.311Z,5.30
2019-06-07T16:06:48.211Z,7.50
2019-06-07T16:09:16.971Z,5.83
2019-06-07T16:11:45.768Z,6.08
2019-06-07T16:14:14.465Z,7.53
2019-06-07T16:16:43.500Z,7.10
2019-06-07T16:19:12.230Z,5.60
2019-06-07T16:21:41.475Z,7.42
2019-06-07T16:24:10.399Z,10.08
2019-06-07T16:26:40.218Z,9.45
2019-06-07T16:29:09.024Z,5.87
2019-06-07T16:31:38.736Z,6.30
2019-06-07T16:34:07.534Z,8.18
2019-06-07T16:36:36.355Z,6.97
2019-06-07T16:39:06.829Z,7.17
2019-06-07T16:41:36.520Z,11.05
2019-06-07T16:44:05.498Z,10.08
2019-06-07T16:46:34.340Z,9.23
2019-06-07T16:49:03.087Z,11.33
2019-06-07T16:51:31.809Z,10.63
2019-06-07T16:54:00.685Z,12.20
2019-06-07T16:56:29.556Z,7.33
2019-06-07T16:58:58.288Z,10.28
2019-06-07T17:01:27.052Z,11.73
2019-06-07T17:03:55.782Z,8.45
2019-06-07T17:06:24.640Z,9.03
2019-06-07T17:08:53.403Z,6.17
2019-06-07T17:11:22.182Z,9.03
2019-06-07T17:13:51.813Z,6.67
2019-06-07T17:16:20.466Z,7.20
2019-06-07T17:18:49.289Z,10.18
2019-06-07T17:21:18.153Z,7.65
2019-06-07T17:23:47.426Z,8.50
2019-06-07T17:26:16.273Z,11.97
2019-06-07T17:28:45.807Z,7.53
2019-06-07T17:31:14.770Z,7.05
2019-06-07T17:33:43.955Z,10.23
2019-06-07T17:36:12.865Z,8.65
2019-06-07T17:38:42.452Z,8.90
2019-06-07T17:41:11.252Z,8.00
2019-06-07T17:43:49.543Z,7.75
2019-06-07T17:46:10.426Z,6.97
2019-06-07T17:48:39.262Z,6.42
2019-06-07T17:51:08.130Z,10.63
2019-06-07T17:53:37.236Z,7.90
2019-06-07T17:56:05.963Z,8.68
2019-06-07T17:58:34.732Z,7.87
2019-06-07T18:01:03.640Z,7.05
2019-06-07T18:03:32.332Z,8.40
2019-06-07T18:06:02.379Z,11.33
2019-06-07T18:08:31.151Z,7.40
2019-06-07T18:10:59.817Z,9.43
2019-06-07T18:13:28.507Z,11.90
2019-06-07T18:15:59.674Z,13.15
2019-06-07T18:18:27.743Z,9.75
2019-06-07T18:20:56.510Z,10.72
2019-06-07T18:23:25.292Z,9.03
2019-06-07T18:25:54.795Z,9.65
2019-06-07T18:28:23.704Z,9.00
2019-06-07T18:30:52.802Z,9.93
2019-06-07T18:33:21.913Z,10.68
2019-06-07T18:35:51.300Z,9.50
2019-06-07T18:38:20.106Z,11.63
2019-06-07T18:40:49.180Z,9.98
2019-06-07T18:43:17.925Z,11.80
2019-06-07T18:45:47.363Z,11.15
2019-06-07T18:48:16.298Z,11.90
2019-06-07T18:50:46.409Z,12.40
2019-06-07T18:53:15.369Z,11.15
2019-06-07T18:55:44.129Z,14.13
2019-06-07T18:58:12.883Z,12.65
2019-06-07T19:00:41.650Z,8.35
2019-06-07T19:03:10.339Z,11.20
2019-06-07T19:05:39.209Z,12.78
2019-06-07T19:08:07.980Z,12.28
2019-06-07T19:10:36.722Z,10.78
2019-06-07T19:13:05.509Z,10.15
2019-06-07T19:15:34.248Z,13.05
2019-06-07T19:18:04.461Z,11.93
2019-06-07T19:20:33.238Z,11.13
2019-06-07T19:23:01.987Z,11.65
2019-06-07T19:25:30.784Z,11.38
2019-06-07T19:28:00.925Z,10.95
2019-06-07T19:30:29.987Z,12.95
2019-06-07T19:32:59.656Z,11.40
2019-06-07T19:35:28.757Z,9.03
2019-06-07T19:37:57.930Z,10.60
2019-06-07T19:40:26.794Z,13.40
2019-06-07T19:42:56.439Z,11.30
2019-06-07T19:45:30.320Z,9.95
2019-06-07T19:47:56.513Z,15.40
2019-06-07T19:50:25.447Z,9.13
2019-06-07T19:52:55.004Z,12.45
2019-06-07T19:55:23.839Z,6.42
2019-06-07T19:57:53.557Z,9.73
2019-06-07T20:00:22.488Z,7.30
2019-06-07T20:02:51.183Z,5.83
2019-06-07T20:05:19.949Z,7.55
2019-06-07T20:07:48.703Z,6.87
2019-06-07T20:10:17.695Z,6.30
2019-06-07T20:12:46.534Z,8.55
2019-06-07T20:15:30.824Z,5.42
2019-06-07T20:17:45.916Z,6.17
2019-06-07T20:20:15.593Z,7.40
2019-06-07T20:22:44.357Z,7.30
2019-06-07T20:25:13.681Z,4.55
2019-06-07T20:27:42.394Z,6.25
2019-06-07T20:30:12.275Z,4.60
2019-06-07T20:32:41.012Z,6.80
2019-06-07T20:35:09.765Z,5.00
2019-06-07T20:37:38.501Z,5.45
2019-06-07T20:40:22.781Z,10.08
2019-06-07T20:42:39.128Z,7.92
2019-06-07T20:45:08.198Z,5.03
2019-06-07T20:47:37.037Z,7.58
2019-06-07T20:50:06.347Z,3.87
2019-06-07T20:52:34.989Z,5.47
2019-06-07T20:55:04.941Z,10.78
2019-06-07T20:57:33.743Z,7.10
2019-06-07T21:00:11.606Z,5.75
2019-06-07T21:02:32.795Z,4.40
2019-06-07T21:05:01.501Z,6.92
2019-06-07T21:07:30.177Z,7.70
2019-06-07T21:09:59.510Z,6.53
2019-06-07T21:12:28.294Z,7.22
2019-06-07T21:14:57.052Z,8.20
2019-06-07T21:17:25.806Z,5.65
2019-06-07T21:19:54.514Z,6.40
2019-06-07T21:22:23.209Z,4.80
2019-06-07T21:24:51.892Z,7.08
2019-06-07T21:27:20.696Z,6.50
2019-06-07T21:29:49.352Z,7.30
2019-06-07T21:32:18.113Z,9.00
2019-06-07T21:34:46.912Z,7.50
2019-06-07T21:37:15.614Z,5.75
2019-06-07T21:39:44.381Z,7.75
2019-06-07T21:42:13.176Z,7.22
2019-06-07T21:44:41.887Z,8.53
2019-06-07T21:47:10.653Z,9.25
2019-06-07T21:49:39.284Z,5.97
2019-06-07T21:52:08.721Z,8.90
2019-06-07T21:54:37.453Z,4.72
2019-06-07T21:57:06.911Z,8.38
2019-06-07T21:59:35.741Z,6.30
2019-06-07T22:02:05.407Z,8.68
2019-06-07T22:04:34.186Z,6.72
2019-06-07T22:07:03.287Z,7.62
2019-06-07T22:09:32.060Z,8.55
2019-06-07T22:12:00.812Z,7.50
2019-06-07T22:14:29.487Z,6.97
2019-06-07T22:16:58.194Z,7.15
2019-06-07T22:19:26.882Z,7.05
2019-06-07T22:22:02.691Z,6.50
2019-06-07T22:24:25.971Z,8.38
2019-06-07T22:26:54.663Z,8.48
2019-06-07T22:29:23.395Z,9.33
2019-06-07T22:31:52.055Z,9.18
2019-06-07T22:34:20.765Z,7.22
2019-06-07T22:36:49.461Z,9.20
2019-06-07T22:39:18.117Z,8.80
2019-06-07T22:41:46.893Z,6.53
2019-06-07T22:44:15.697Z,7.45
2019-06-07T22:46:44.431Z,5.53
2019-06-07T22:49:13.383Z,5.60
2019-06-07T22:51:42.065Z,7.95
2019-06-07T22:54:11.733Z,9.08
2019-06-07T22:56:47.944Z,6.58
2019-06-07T22:59:18.790Z,8.68
2019-06-07T23:01:46.987Z,9.10
2019-06-07T23:04:16.712Z,7.17
2019-06-07T23:06:45.487Z,6.25
2019-06-07T23:09:14.949Z,6.33
2019-06-07T23:11:43.724Z,6.67
2019-06-07T23:14:13.441Z,8.33
2019-06-07T23:16:54.864Z,7.47
2019-06-07T23:19:13.743Z,8.53
2019-06-07T23:21:42.527Z,10.03
2019-06-07T23:24:11.872Z,8.28
2019-06-07T23:26:40.677Z,8.73
2019-06-07T23:29:10.269Z,6.75
2019-06-07T23:31:39.079Z,9.90
2019-06-07T23:34:07.807Z,6.95
2019-06-07T23:36:36.485Z,7.42
2019-06-07T23:39:06.844Z,6.35
2019-06-07T23:41:35.612Z,10.75
2019-06-07T23:44:04.388Z,7.50
2019-06-07T23:46:33.090Z,8.83
2019-06-07T23:49:01.935Z,8.83
2019-06-07T23:51:30.626Z,10.50
2019-06-07T23:53:59.510Z,8.40
2019-06-07T23:56:28.254Z,11.43
2019-06-07T23:58:58.005Z,8.48
